Time;durP1;ratioP1;P1;durP2;ratioP2;P2;SDS_P1;SDS_P2;PMS_P1;PMS_P2;Temp;Humidity;BMP_temperature;BMP_pressure;BME280_temperature;BME280_humidity;BME280_pressure;Samples;Min_cycle;Max_cycle;Signal;HPM_P1;HPM_P2
2021/01/30 01:23:59;;;;;;;198.68;78.05;;;;;;;-1.18;100.00;98508.88;9166384;94;21128;-82
2021/01/30 01:40:20;;;;;;;182.60;69.30;;;;;;;-1.17;100.00;98502.34;9795960;89;21050;-81
2021/01/30 01:56:45;;;;;;;205.40;77.22;;;;;;;-1.14;100.00;98492.78;9281003;94;21175;-81
2021/01/30 02:13:01;;;;;;;105.97;42.70;;;;;;;-1.21;100.00;98493.66;10077014;86;21055;-81
2021/01/30 02:46:38;;;;;;;152.22;54.00;;;;;;;-1.24;100.00;98477.97;9321109;94;21129;-81
2021/01/30 03:03:07;;;;;;;231.13;76.57;;;;;;;-1.20;100.00;98492.27;9178185;95;21223;-80
2021/01/30 04:43:38;;;;;;;52.27;27.37;;;;;;;-1.24;100.00;98490.83;9324638;95;21253;-81
2021/01/30 06:05:57;;;;;;;61.58;28.95;;;;;;;-0.90;100.00;98452.48;10298459;86;21043;-82
2021/01/30 06:21:23;;;;;;;60.58;25.27;;;;;;;-0.96;100.00;98465.77;10373961;84;21214;-81
2021/01/30 06:36:33;;;;;;;51.53;23.60;;;;;;;-1.03;100.00;98464.53;9939733;87;21087;-91
2021/01/30 06:51:40;;;;;;;135.55;50.80;;;;;;;-0.96;100.00;98467.05;10161826;85;21075;-92
2021/01/30 07:06:53;;;;;;;163.20;68.92;;;;;;;-0.97;100.00;98474.41;10415723;85;21063;-92
2021/01/30 07:22:03;;;;;;;83.58;39.20;;;;;;;-1.02;100.00;98482.47;10521174;84;21115;-88
2021/01/30 07:37:14;;;;;;;133.40;59.10;;;;;;;-0.95;100.00;98480.73;10535160;84;21082;-87
2021/01/30 07:52:24;;;;;;;309.55;116.37;;;;;;;-0.66;100.00;98485.17;10527075;84;21222;-88
2021/01/30 08:07:40;;;;;;;122.13;51.80;;;;;;;-0.67;100.00;98493.81;10539420;84;21031;-89
2021/01/30 08:22:51;;;;;;;638.00;278.30;;;;;;;-0.39;100.00;98495.25;10437212;84;21192;-90
2021/01/30 08:38:01;;;;;;;373.57;157.85;;;;;;;-0.06;100.00;98504.55;10501321;84;21079;-88
2021/01/30 08:53:15;;;;;;;228.58;88.52;;;;;;;-0.04;100.00;98513.81;10536753;84;21080;-91
2021/01/30 09:08:47;;;;;;;63.17;30.52;;;;;;;0.18;100.00;98519.16;10521858;84;21553;-81
2021/01/30 09:24:02;;;;;;;127.87;46.95;;;;;;;0.62;100.00;98519.74;10526977;84;21154;-81
2021/01/30 09:39:21;;;;;;;90.30;37.73;;;;;;;0.95;100.00;98519.88;10537705;83;21608;-81
2021/01/30 09:54:29;;;;;;;70.55;33.75;;;;;;;0.98;100.00;98537.73;10539242;84;21130;-78
2021/01/30 10:09:41;;;;;;;252.13;75.57;;;;;;;0.96;100.00;98539.59;10502297;84;21162;-83
2021/01/30 10:25:27;;;;;;;47.62;21.37;;;;;;;0.96;100.00;98539.59;10520229;84;20996;-84
2021/01/30 10:41:00;;;;;;;490.02;168.45;;;;;;;0.96;100.00;98553.80;10471548;84;21032;-83
2021/01/30 10:56:23;;;;;;;251.75;80.92;;;;;;;1.15;100.00;98558.40;10476100;84;21044;-84
2021/01/30 11:11:30;;;;;;;172.53;70.00;;;;;;;0.88;100.00;98551.80;9933220;89;21067;-86
2021/01/30 11:26:43;;;;;;;353.25;106.52;;;;;;;0.95;100.00;98558.60;10160361;85;21041;-82
2021/01/30 11:41:48;;;;;;;275.50;76.82;;;;;;;0.72;100.00;98558.58;10474190;84;21036;-83
2021/01/30 11:56:52;;;;;;;119.67;41.73;;;;;;;0.89;100.00;98554.73;10425223;84;21200;-82
2021/01/30 12:11:57;;;;;;;407.52;149.93;;;;;;;0.76;100.00;98572.90;10421457;84;21067;-83
2021/01/30 12:27:01;;;;;;;76.40;39.92;;;;;;;0.76;100.00;98572.90;10428860;84;21579;-85
2021/01/30 12:42:06;;;;;;;231.13;108.75;;;;;;;0.70;100.00;98576.41;10439339;84;21165;-84
2021/01/30 12:57:11;;;;;;;55.55;27.75;;;;;;;0.79;100.00;98583.02;10444260;84;21549;-85
2021/01/30 13:12:17;;;;;;;91.32;45.25;;;;;;;0.87;100.00;98583.73;10499842;84;21051;-87
2021/01/30 13:27:21;;;;;;;60.37;28.40;;;;;;;1.12;100.00;98591.74;10537787;84;21111;-86
2021/01/30 13:42:26;;;;;;;56.77;23.47;;;;;;;1.02;100.00;98604.16;10243752;86;21162;-83
2021/01/30 13:57:32;;;;;;;75.30;32.05;;;;;;;0.47;100.00;98612.00;10262976;87;21285;-83
2021/01/30 14:12:39;;;;;;;140.22;63.08;;;;;;;0.47;100.00;98620.22;10238102;86;21095;-80
2021/01/30 14:27:44;;;;;;;114.77;43.92;;;;;;;0.29;100.00;98624.50;10282018;85;21112;-84
2021/01/30 14:42:48;;;;;;;56.20;21.97;;;;;;;0.11;100.00;98634.36;10081332;86;21278;-85
2021/01/30 14:57:53;;;;;;;94.15;32.67;;;;;;;-0.07;100.00;98650.66;10195424;85;21134;-85
2021/01/30 15:12:58;;;;;;;83.27;30.43;;;;;;;-0.44;100.00;98660.13;10033310;87;21091;-86
2021/01/30 15:28:03;;;;;;;74.97;29.50;;;;;;;-0.17;100.00;98672.88;10187146;86;21162;-85
2021/01/30 15:43:07;;;;;;;118.70;46.80;;;;;;;-0.28;100.00;98698.08;10188286;85;21157;-85
2021/01/30 15:58:22;;;;;;;76.02;36.33;;;;;;;-0.12;100.00;98713.34;10241525;86;21245;-81
2021/01/30 16:14:03;;;;;;;72.10;30.30;;;;;;;-0.39;100.00;98723.77;9774725;90;21171;-88
2021/01/30 17:03:23;;;;;;;34.90;13.22;;;;;;;-0.54;100.00;98777.98;9128304;93;21305;-81
2021/01/30 17:18:41;;;;;;;27.73;11.65;;;;;;;-0.38;100.00;98797.58;9962100;85;21606;-85
2021/01/30 17:33:47;;;;;;;66.80;28.97;;;;;;;-0.44;100.00;98815.54;10530977;84;21122;-85
2021/01/30 17:48:51;;;;;;;56.30;24.18;;;;;;;-0.30;100.00;98823.66;10535218;84;21270;-84
2021/01/30 18:03:56;;;;;;;76.33;34.25;;;;;;;-0.53;100.00;98846.62;10538641;84;21074;-87
2021/01/30 18:19:00;;;;;;;167.22;71.70;;;;;;;-0.91;100.00;98861.94;10523176;84;21413;-87
2021/01/30 18:34:07;;;;;;;217.70;78.37;;;;;;;-0.86;100.00;98876.19;10538419;84;21096;-86
2021/01/30 18:49:10;;;;;;;;;;;;;;;-1.01;100.00;98883.11;10599147;84;21670;-85
2021/01/30 19:04:15;;;;;;;508.70;156.90;;;;;;;-1.20;100.00;98893.73;10618979;84;20209;-82
2021/01/30 19:19:19;;;;;;;502.28;177.05;;;;;;;-1.20;100.00;98909.17;10620553;84;21149;-82
2021/01/30 19:34:24;;;;;;;353.02;114.90;;;;;;;-1.18;100.00;98918.91;10619896;84;21189;-87
2021/01/30 19:49:30;;;;;;;109.27;41.63;;;;;;;-1.39;100.00;98917.17;10346991;84;21033;-85
2021/01/30 20:04:35;;;;;;;310.77;102.47;;;;;;;-1.67;100.00;98938.59;10539849;84;21044;-85
2021/01/30 20:20:07;;;;;;;154.38;67.00;;;;;;;-1.80;100.00;98944.09;10521023;84;21023;-82
2021/01/30 20:52:46;;;;;;;35.68;14.38;;;;;;;-2.47;100.00;98959.84;10517503;84;21130;-83
2021/01/30 21:08:11;;;;;;;25.40;10.90;;;;;;;-2.48;100.00;98967.17;10508099;84;21563;-84
2021/01/30 21:23:15;;;;;;;25.82;10.15;;;;;;;-3.06;100.00;98987.36;10527030;84;21114;-87
2021/01/30 21:38:21;;;;;;;32.37;12.60;;;;;;;-3.09;100.00;99012.76;10536931;84;21345;-83
2021/01/30 21:53:29;;;;;;;234.00;74.53;;;;;;;-3.38;100.00;99027.06;10420319;84;21066;-82
2021/01/30 22:25:10;;;;;;;48.08;21.52;;;;;;;-3.93;100.00;99045.98;9549227;91;21645;-82
2021/01/30 22:40:49;;;;;;;78.92;34.70;;;;;;;-4.22;100.00;99040.08;10384966;85;21176;-82
2021/01/30 22:56:57;;;;;;;80.80;28.80;;;;;;;-4.53;100.00;99048.34;10389191;85;21215;-82
2021/01/30 23:13:40;;;;;;;44.67;15.55;;;;;;;-4.61;100.00;99057.64;10263511;86;21587;-82
2021/01/30 23:28:46;;;;;;;28.40;11.22;;;;;;;-4.69;100.00;99064.39;10235612;86;21156;-83
2021/01/30 23:43:50;;;;;;;19.80;7.80;;;;;;;-4.52;100.00;99070.03;10214264;85;21181;-82
2021/01/30 23:58:55;;;;;;;63.07;19.57;;;;;;;-4.40;100.00;99069.10;10265327;86;21035;-82
